createdAt,value
2019-04-30T11:52:19.463Z,13.80
2019-04-30T11:53:32.800Z,13.40
2019-04-30T11:54:51.308Z,13.20
2019-04-30T11:56:01.069Z,12.80
2019-04-30T11:57:14.361Z,12.50
2019-04-30T11:58:30.399Z,12.30
2019-04-30T11:59:49.059Z,12.40
2019-04-30T12:01:02.380Z,12.80
2019-04-30T12:02:21.186Z,13.10
2019-04-30T12:03:34.589Z,13.00
2019-04-30T12:04:49.432Z,13.40
2019-04-30T12:06:02.809Z,13.80
2019-04-30T12:07:17.754Z,14.10
2019-04-30T12:08:49.218Z,14.20
2019-04-30T12:10:10.219Z,14.30
2019-04-30T12:11:39.924Z,14.70
2019-04-30T12:12:53.204Z,15.40
2019-04-30T12:14:06.476Z,15.80
2019-04-30T12:15:19.745Z,16.30
2019-04-30T12:16:33.729Z,16.00
2019-04-30T12:17:47.221Z,15.90
2019-04-30T12:19:00.712Z,15.50
2019-04-30T12:20:14.064Z,15.00
2019-04-30T12:21:27.332Z,14.40
2019-04-30T12:22:40.621Z,13.90
2019-04-30T12:23:53.885Z,13.60
2019-04-30T12:25:07.231Z,14.00
2019-04-30T12:26:20.492Z,14.20
2019-04-30T12:27:33.777Z,14.30
2019-04-30T12:28:47.042Z,14.80
2019-04-30T12:30:00.310Z,14.50
2019-04-30T12:31:13.579Z,14.20
2019-04-30T12:32:26.864Z,13.80
2019-04-30T12:33:40.134Z,13.20
2019-04-30T12:34:53.403Z,12.90
2019-04-30T12:36:06.672Z,12.90
2019-04-30T12:37:19.936Z,12.70
2019-04-30T12:38:33.216Z,12.60
2019-04-30T12:39:46.485Z,12.50
2019-04-30T12:40:59.767Z,12.40
2019-04-30T12:42:14.728Z,12.30
2019-04-30T12:43:28.001Z,12.20
2019-04-30T12:44:41.271Z,12.20
2019-04-30T12:46:02.743Z,12.20
2019-04-30T12:47:09.720Z,12.30
2019-04-30T12:48:29.426Z,12.40
2019-04-30T12:49:47.269Z,12.60
2019-04-30T12:51:02.184Z,13.20
2019-04-30T12:52:17.096Z,14.30
2019-04-30T12:53:49.860Z,14.90
2019-04-30T12:55:22.582Z,14.80
2019-04-30T12:56:40.305Z,14.40
2019-04-30T12:57:58.721Z,13.90
2019-04-30T12:59:10.293Z,14.20
2019-04-30T13:00:24.931Z,14.80
2019-04-30T13:01:39.885Z,14.70
2019-04-30T13:02:53.352Z,14.80
2019-04-30T13:04:06.628Z,15.30
2019-04-30T13:05:19.975Z,16.00
2019-04-30T13:06:33.717Z,15.80
2019-04-30T13:07:49.408Z,15.90
2019-04-30T13:09:02.768Z,16.40
2019-04-30T13:10:17.244Z,16.80
2019-04-30T13:11:31.472Z,16.60
2019-04-30T13:12:45.875Z,16.80
2019-04-30T13:14:00.352Z,17.20
2019-04-30T13:15:14.018Z,17.40
2019-04-30T13:16:29.156Z,17.40
2019-04-30T13:17:42.295Z,17.60
2019-04-30T13:18:55.578Z,18.10
2019-04-30T13:20:18.797Z,17.60
2019-04-30T13:21:24.493Z,17.90
2019-04-30T13:22:38.896Z,18.60
2019-04-30T13:23:52.210Z,18.60
2019-04-30T13:25:05.550Z,18.30
2019-04-30T13:26:18.959Z,18.00
2019-04-30T13:27:33.857Z,18.50
2019-04-30T13:28:54.748Z,18.30
2019-04-30T13:30:12.444Z,18.10
2019-04-30T13:31:25.719Z,17.70
2019-04-30T13:32:52.364Z,17.70
2019-04-30T13:34:23.296Z,17.60
2019-04-30T13:35:36.575Z,17.90
2019-04-30T13:36:49.840Z,17.80
2019-04-30T13:38:07.696Z,17.10
2019-04-30T13:39:27.016Z,16.70
2019-04-30T13:40:51.524Z,16.70
2019-04-30T13:42:15.890Z,16.50
2019-04-30T13:43:40.223Z,17.00
2019-04-30T13:44:56.468Z,17.30
2019-04-30T13:46:09.894Z,17.60
2019-04-30T13:47:23.173Z,18.00
2019-04-30T13:48:36.435Z,18.30
2019-04-30T13:49:49.710Z,18.40
2019-04-30T13:51:02.995Z,18.30
2019-04-30T13:52:16.265Z,18.80
2019-04-30T13:53:30.279Z,19.50
2019-04-30T13:54:43.555Z,20.10
2019-04-30T13:55:58.846Z,19.70
2019-04-30T13:57:12.410Z,19.30
2019-04-30T13:58:25.676Z,19.40
2019-04-30T13:59:38.948Z,19.40
2019-04-30T14:00:52.234Z,19.30
2019-04-30T14:02:05.524Z,18.90
2019-04-30T14:03:32.580Z,18.40
2019-04-30T14:04:56.452Z,17.30
2019-04-30T14:06:11.394Z,16.40
2019-04-30T14:07:35.087Z,16.20
2019-04-30T14:08:49.998Z,16.20
2019-04-30T14:10:04.009Z,16.30
2019-04-30T14:11:18.986Z,16.30
2019-04-30T14:12:33.973Z,16.10
2019-04-30T14:13:47.254Z,16.30
2019-04-30T14:15:00.516Z,16.70
2019-04-30T14:16:13.852Z,17.00
2019-04-30T14:17:27.200Z,17.20
2019-04-30T14:18:40.472Z,17.40
2019-04-30T14:19:53.744Z,17.90
2019-04-30T14:21:07.029Z,18.60
2019-04-30T14:22:20.319Z,18.00
2019-04-30T14:23:33.580Z,17.50
2019-04-30T14:24:46.855Z,16.80
2019-04-30T14:26:01.169Z,16.20
2019-04-30T14:27:14.558Z,16.00
2019-04-30T14:28:29.194Z,16.10
2019-04-30T14:29:42.598Z,15.60
2019-04-30T14:30:55.857Z,14.80
2019-04-30T14:32:09.212Z,14.50
2019-04-30T14:33:26.011Z,14.40
2019-04-30T14:34:39.370Z,14.30
2019-04-30T14:35:52.536Z,14.30
2019-04-30T14:37:05.823Z,14.40
2019-04-30T14:38:19.145Z,14.50
2019-04-30T14:39:32.634Z,14.60
2019-04-30T14:40:46.541Z,14.90
2019-04-30T14:42:00.967Z,15.20
2019-04-30T14:43:22.898Z,15.00
2019-04-30T14:44:37.304Z,14.80
2019-04-30T14:45:55.843Z,14.40
2019-04-30T14:47:23.755Z,14.10
2019-04-30T14:48:43.018Z,13.90
2019-04-30T14:50:10.382Z,13.60
2019-04-30T14:51:23.650Z,13.60
2019-04-30T14:52:40.232Z,13.60
2019-04-30T14:53:58.867Z,13.70
2019-04-30T14:55:18.723Z,13.70
2019-04-30T14:56:39.733Z,13.90
2019-04-30T14:57:54.638Z,14.00
2019-04-30T14:59:09.548Z,14.00
2019-04-30T15:00:33.468Z,13.80
2019-04-30T15:01:59.155Z,13.50
2019-04-30T15:03:19.450Z,13.40
2019-04-30T15:04:32.775Z,13.30
2019-04-30T15:05:50.905Z,13.20
2019-04-30T15:07:01.028Z,13.20
2019-04-30T15:08:14.301Z,13.20
2019-04-30T15:09:27.665Z,13.30
2019-04-30T15:10:40.931Z,13.20
2019-04-30T15:11:54.208Z,13.10
2019-04-30T15:13:09.587Z,13.20
2019-04-30T15:14:22.468Z,13.20
2019-04-30T15:15:35.763Z,13.20
2019-04-30T15:16:49.026Z,13.10
2019-04-30T15:18:02.296Z,13.20
2019-04-30T15:19:15.554Z,13.20
2019-04-30T15:20:29.641Z,13.20
2019-04-30T15:21:42.996Z,13.20
2019-04-30T15:22:58.732Z,13.30
2019-04-30T15:24:13.689Z,13.40
2019-04-30T15:25:34.348Z,13.30
2019-04-30T15:26:41.946Z,13.10
2019-04-30T15:27:55.239Z,13.10
2019-04-30T15:29:13.371Z,13.00
2019-04-30T15:30:23.485Z,13.00
2019-04-30T15:31:36.750Z,13.00
2019-04-30T15:32:51.656Z,12.90
2019-04-30T15:34:11.116Z,13.00
2019-04-30T15:35:24.541Z,13.00
2019-04-30T15:36:39.256Z,13.00
2019-04-30T15:37:55.077Z,12.90
2019-04-30T15:39:18.968Z,13.00
2019-04-30T15:40:32.238Z,13.20
2019-04-30T15:41:45.505Z,13.20
2019-04-30T15:43:02.415Z,13.20
2019-04-30T15:44:15.406Z,13.20
2019-04-30T15:45:29.207Z,13.20
2019-04-30T15:46:42.586Z,13.20
2019-04-30T15:47:55.858Z,13.10
2019-04-30T15:49:09.123Z,13.10
2019-04-30T15:50:22.392Z,13.00
2019-04-30T15:51:35.681Z,13.00
2019-04-30T15:52:48.946Z,13.10
2019-04-30T15:54:02.292Z,13.00
2019-04-30T15:55:15.568Z,12.90
2019-04-30T15:56:35.171Z,12.90
2019-04-30T15:58:01.588Z,12.90
2019-04-30T15:59:22.554Z,13.00
2019-04-30T16:00:35.819Z,13.00
2019-04-30T16:01:50.770Z,13.10
2019-04-30T16:03:09.514Z,13.20
2019-04-30T16:04:40.555Z,13.00
2019-04-30T16:05:56.714Z,13.00
2019-04-30T16:07:10.032Z,13.00
2019-04-30T16:08:24.936Z,13.00
2019-04-30T16:09:45.879Z,13.10
2019-04-30T16:11:15.840Z,13.00
2019-04-30T16:12:30.768Z,13.00
2019-04-30T16:13:49.543Z,12.90
2019-04-30T16:15:02.880Z,13.00
2019-04-30T16:16:16.152Z,13.20
2019-04-30T16:17:29.451Z,13.40
2019-04-30T16:18:44.351Z,13.70
2019-04-30T16:19:57.623Z,14.00
2019-04-30T16:21:10.881Z,14.10
2019-04-30T16:22:24.143Z,14.00
2019-04-30T16:23:38.634Z,13.90
2019-04-30T16:24:54.573Z,13.80
2019-04-30T16:26:06.982Z,13.60
2019-04-30T16:27:20.246Z,13.40
2019-04-30T16:28:33.504Z,13.40
2019-04-30T16:29:46.800Z,13.30
2019-04-30T16:31:00.060Z,13.20
2019-04-30T16:32:13.576Z,13.10
2019-04-30T16:33:26.850Z,13.10
2019-04-30T16:34:40.131Z,13.00
2019-04-30T16:35:54.878Z,12.90
2019-04-30T16:37:08.323Z,12.80
2019-04-30T16:38:21.680Z,12.80
2019-04-30T16:39:34.944Z,12.80
2019-04-30T16:40:48.941Z,12.80
2019-04-30T16:42:02.378Z,12.80
2019-04-30T16:43:15.653Z,12.80
2019-04-30T16:44:28.928Z,12.70
2019-04-30T16:45:42.212Z,12.70
2019-04-30T16:46:55.487Z,12.80
2019-04-30T16:48:09.785Z,12.70
2019-04-30T16:49:25.789Z,12.60
2019-04-30T16:50:39.092Z,12.60
2019-04-30T16:51:52.358Z,12.60
2019-04-30T16:53:05.702Z,12.60
2019-04-30T16:54:19.033Z,12.50
2019-04-30T16:55:32.387Z,12.50
2019-04-30T16:56:45.664Z,12.40
2019-04-30T16:57:58.940Z,12.40
2019-04-30T16:59:32.964Z,12.40
2019-04-30T17:00:46.229Z,12.40
2019-04-30T17:02:00.473Z,12.40
2019-04-30T17:03:21.313Z,12.40
2019-04-30T17:04:39.280Z,12.50
2019-04-30T17:05:54.192Z,12.40
2019-04-30T17:07:12.140Z,12.50
2019-04-30T17:08:28.987Z,12.40
2019-04-30T17:10:01.497Z,12.40
2019-04-30T17:11:19.181Z,12.40
2019-04-30T17:12:34.120Z,12.40
2019-04-30T17:13:54.753Z,12.40
2019-04-30T17:15:15.581Z,12.40
2019-04-30T17:16:30.195Z,12.30
2019-04-30T17:17:43.623Z,12.30
2019-04-30T17:18:58.960Z,12.30
2019-04-30T17:20:12.704Z,12.30
2019-04-30T17:21:25.979Z,12.30
2019-04-30T17:22:39.514Z,12.30
2019-04-30T17:23:52.810Z,12.30
2019-04-30T17:25:09.145Z,12.30
2019-04-30T17:26:22.497Z,12.30
2019-04-30T17:27:35.837Z,12.20
2019-04-30T17:28:49.900Z,12.30
2019-04-30T17:30:05.929Z,12.20
2019-04-30T17:31:19.193Z,12.20
2019-04-30T17:32:32.464Z,12.20
2019-04-30T17:33:45.749Z,12.20
2019-04-30T17:34:59.277Z,12.30
2019-04-30T17:36:12.534Z,12.30
2019-04-30T17:37:25.816Z,12.20
2019-04-30T17:38:39.110Z,12.20
2019-04-30T17:39:52.933Z,12.20
2019-04-30T17:41:06.316Z,12.20
2019-04-30T17:42:19.580Z,12.10
2019-04-30T17:43:32.870Z,12.20
2019-04-30T17:44:56.122Z,12.10
2019-04-30T17:46:03.975Z,12.10
2019-04-30T17:47:16.387Z,12.00
2019-04-30T17:48:31.030Z,12.00
2019-04-30T17:49:44.408Z,12.00
2019-04-30T17:50:59.023Z,12.00
2019-04-30T17:52:12.788Z,12.00
2019-04-30T17:53:26.263Z,12.00
2019-04-30T17:54:40.777Z,12.00
2019-04-30T17:55:54.128Z,12.00
2019-04-30T17:57:10.436Z,12.00
2019-04-30T17:58:22.378Z,12.00
2019-04-30T17:59:35.668Z,12.00
2019-04-30T18:00:50.577Z,11.90
2019-04-30T18:02:05.484Z,11.90
2019-04-30T18:03:19.011Z,11.90
2019-04-30T18:04:32.298Z,11.90
2019-04-30T18:05:45.578Z,11.80
2019-04-30T18:06:59.159Z,11.90
2019-04-30T18:08:12.496Z,11.80
2019-04-30T18:09:26.717Z,11.80
2019-04-30T18:10:40.469Z,11.70
2019-04-30T18:11:53.741Z,11.70
2019-04-30T18:13:07.573Z,11.70
2019-04-30T18:14:20.836Z,11.60
2019-04-30T18:15:34.117Z,11.60
2019-04-30T18:16:48.617Z,11.60
2019-04-30T18:18:06.308Z,11.50
2019-04-30T18:19:28.677Z,11.40
2019-04-30T18:20:59.772Z,11.40
2019-04-30T18:22:20.790Z,11.30
2019-04-30T18:23:42.812Z,11.30
2019-04-30T18:25:03.690Z,11.20
2019-04-30T18:26:17.839Z,11.20
2019-04-30T18:27:42.823Z,11.10
2019-04-30T18:28:47.736Z,11.10
2019-04-30T18:30:01.004Z,11.10
2019-04-30T18:31:14.388Z,11.00
2019-04-30T18:32:29.632Z,11.00
2019-04-30T18:33:43.244Z,11.00
2019-04-30T18:34:56.501Z,11.00
2019-04-30T18:36:10.208Z,11.00
2019-04-30T18:37:23.465Z,10.90
2019-04-30T18:38:39.151Z,10.90
2019-04-30T18:39:52.930Z,10.90
2019-04-30T18:41:07.036Z,10.80
2019-04-30T18:42:20.362Z,10.80
2019-04-30T18:43:33.628Z,10.80
2019-04-30T18:44:47.157Z,10.70
2019-04-30T18:46:00.751Z,10.70
2019-04-30T18:47:14.140Z,10.70
2019-04-30T18:48:29.411Z,10.70
2019-04-30T18:49:42.743Z,10.70
2019-04-30T18:50:56.031Z,10.60
2019-04-30T18:52:09.704Z,10.60
2019-04-30T18:53:24.612Z,10.60
2019-04-30T18:54:39.668Z,10.60
2019-04-30T18:55:53.116Z,10.60
2019-04-30T18:57:06.690Z,10.60
2019-04-30T18:58:20.383Z,10.60
2019-04-30T18:59:33.647Z,10.60
2019-04-30T19:00:47.060Z,10.60
2019-04-30T19:02:00.337Z,10.60
2019-04-30T19:03:13.640Z,10.60
2019-04-30T19:04:28.825Z,10.60
2019-04-30T19:05:43.869Z,10.60
2019-04-30T19:06:58.824Z,10.60
2019-04-30T19:08:16.748Z,10.60
2019-04-30T19:09:31.661Z,10.60
2019-04-30T19:11:02.761Z,10.60
2019-04-30T19:12:23.400Z,10.60
2019-04-30T19:13:41.434Z,10.60
2019-04-30T19:14:56.513Z,10.60
2019-04-30T19:16:24.695Z,10.60
2019-04-30T19:17:35.360Z,10.60
2019-04-30T19:18:52.685Z,10.60
2019-04-30T19:20:18.813Z,10.60
2019-04-30T19:21:32.188Z,10.60
2019-04-30T19:22:45.544Z,10.60
2019-04-30T19:23:58.817Z,10.60
2019-04-30T19:25:12.710Z,10.60
2019-04-30T19:26:25.972Z,10.50
2019-04-30T19:27:39.643Z,10.60
2019-04-30T19:28:52.916Z,10.50
2019-04-30T19:30:06.713Z,10.50
2019-04-30T19:31:20.304Z,10.50
2019-04-30T19:32:33.600Z,10.50
2019-04-30T19:33:48.925Z,10.50
2019-04-30T19:35:02.380Z,10.40
2019-04-30T19:36:18.336Z,10.50
2019-04-30T19:37:30.653Z,10.40
2019-04-30T19:38:43.955Z,10.40
2019-04-30T19:39:59.008Z,10.50
2019-04-30T19:41:12.693Z,10.40
2019-04-30T19:42:25.980Z,10.50
2019-04-30T19:43:39.640Z,10.40
2019-04-30T19:44:59.768Z,10.40
2019-04-30T19:46:09.178Z,10.40
2019-04-30T19:47:22.884Z,10.40
2019-04-30T19:48:36.172Z,10.40
2019-04-30T19:49:49.459Z,10.40
2019-04-30T19:51:02.740Z,10.40
2019-04-30T19:52:16.122Z,10.40
2019-04-30T19:53:30.399Z,10.40
2019-04-30T19:54:44.224Z,10.30
2019-04-30T19:55:57.520Z,10.30
2019-04-30T19:57:11.179Z,10.30
2019-04-30T19:58:37.949Z,10.30
2019-04-30T19:59:41.094Z,10.30
2019-04-30T20:00:54.388Z,10.30
2019-04-30T20:02:07.652Z,10.30
2019-04-30T20:03:20.931Z,10.30
2019-04-30T20:04:36.478Z,10.30
2019-04-30T20:05:49.207Z,10.30
2019-04-30T20:07:02.477Z,10.30
2019-04-30T20:08:15.780Z,10.30
2019-04-30T20:09:29.696Z,10.20
2019-04-30T20:10:43.202Z,10.20
2019-04-30T20:11:56.961Z,10.20
2019-04-30T20:13:12.328Z,10.20
2019-04-30T20:14:25.937Z,10.30
2019-04-30T20:15:39.653Z,10.20
2019-04-30T20:16:52.924Z,10.20
2019-04-30T20:18:08.841Z,10.20
2019-04-30T20:19:21.866Z,10.20
2019-04-30T20:20:35.314Z,10.30
2019-04-30T20:21:53.483Z,10.20
2019-04-30T20:23:03.648Z,10.20
2019-04-30T20:24:19.046Z,10.20
2019-04-30T20:25:32.158Z,10.20
2019-04-30T20:26:45.427Z,10.20
2019-04-30T20:27:58.764Z,10.20
2019-04-30T20:29:12.221Z,10.20
2019-04-30T20:30:25.488Z,10.20
2019-04-30T20:31:39.154Z,10.20
2019-04-30T20:32:52.426Z,10.20
2019-04-30T20:34:06.109Z,10.20
2019-04-30T20:35:19.382Z,10.20
2019-04-30T20:36:32.717Z,10.20
2019-04-30T20:38:03.647Z,10.20
2019-04-30T20:39:18.576Z,10.20
2019-04-30T20:40:43.083Z,10.20
2019-04-30T20:41:48.766Z,10.10
2019-04-30T20:43:02.104Z,10.10
2019-04-30T20:44:15.381Z,10.10
2019-04-30T20:45:29.416Z,10.10
2019-04-30T20:46:42.857Z,10.10
2019-04-30T20:47:56.215Z,10.10
2019-04-30T20:49:09.512Z,10.10
2019-04-30T20:50:22.999Z,10.20
2019-04-30T20:51:36.268Z,10.20
2019-04-30T20:52:49.541Z,10.10
2019-04-30T20:54:03.081Z,10.10
2019-04-30T20:55:16.357Z,10.10
2019-04-30T20:56:29.632Z,10.10
2019-04-30T20:57:42.893Z,10.10
2019-04-30T20:58:59.829Z,10.10
2019-04-30T21:00:13.180Z,10.10
2019-04-30T21:01:26.551Z,10.10
2019-04-30T21:02:39.896Z,10.10
2019-04-30T21:03:53.515Z,10.00
2019-04-30T21:05:08.902Z,10.10
2019-04-30T21:06:22.491Z,10.10
2019-04-30T21:07:35.834Z,10.00
2019-04-30T21:08:49.103Z,10.10
2019-04-30T21:10:02.453Z,10.10
2019-04-30T21:11:15.722Z,10.10
2019-04-30T21:12:28.987Z,10.10
2019-04-30T21:13:42.307Z,10.00
2019-04-30T21:14:55.580Z,10.00
2019-04-30T21:16:09.246Z,10.00
2019-04-30T21:17:22.515Z,10.00
2019-04-30T21:18:35.789Z,10.00
2019-04-30T21:19:49.076Z,10.00
2019-04-30T21:21:02.420Z,10.00
2019-04-30T21:22:15.684Z,10.00
2019-04-30T21:23:29.382Z,10.00
2019-04-30T21:24:43.139Z,10.00
2019-04-30T21:25:59.794Z,10.00
2019-04-30T21:27:14.464Z,10.00
2019-04-30T21:28:29.695Z,10.00
2019-04-30T21:29:43.646Z,9.90
2019-04-30T21:30:57.067Z,9.90
2019-04-30T21:32:15.340Z,9.90
2019-04-30T21:33:41.193Z,9.90
2019-04-30T21:35:00.488Z,9.90
2019-04-30T21:36:18.950Z,9.90
2019-04-30T21:37:35.052Z,9.80
2019-04-30T21:38:49.045Z,9.80
2019-04-30T21:40:02.424Z,9.80
2019-04-30T21:41:15.904Z,9.80
2019-04-30T21:42:29.216Z,9.80
2019-04-30T21:43:43.380Z,9.80
2019-04-30T21:44:57.428Z,9.80
2019-04-30T21:46:11.025Z,9.80
2019-04-30T21:47:24.765Z,9.80
2019-04-30T21:48:38.868Z,9.80
2019-04-30T21:49:53.173Z,9.80
2019-04-30T21:51:09.439Z,9.80
2019-04-30T21:52:23.237Z,9.80
2019-04-30T21:53:36.538Z,9.80
2019-04-30T21:54:50.177Z,9.80
2019-04-30T21:56:03.542Z,9.80
2019-04-30T21:57:16.865Z,9.80
2019-04-30T21:58:30.130Z,9.80
2019-04-30T21:59:43.450Z,9.80
2019-04-30T22:01:11.204Z,9.80
2019-04-30T22:02:24.473Z,9.70
2019-04-30T22:03:39.413Z,9.70
2019-04-30T22:04:52.839Z,9.70
2019-04-30T22:06:06.149Z,9.70
2019-04-30T22:07:19.638Z,9.70
2019-04-30T22:08:33.037Z,9.70
2019-04-30T22:09:46.296Z,9.70
2019-04-30T22:11:00.217Z,9.70
2019-04-30T22:12:13.652Z,9.60
2019-04-30T22:13:26.924Z,9.60
2019-04-30T22:14:40.651Z,9.60
2019-04-30T22:15:54.332Z,9.70
2019-04-30T22:17:09.303Z,9.60
2019-04-30T22:18:22.795Z,9.60
2019-04-30T22:19:36.046Z,9.60
2019-04-30T22:20:49.881Z,9.60
2019-04-30T22:22:06.028Z,9.60
2019-04-30T22:23:19.309Z,9.60
2019-04-30T22:24:32.568Z,9.70
2019-04-30T22:25:45.847Z,9.60
2019-04-30T22:26:59.185Z,9.60
2019-04-30T22:28:12.624Z,9.60
2019-04-30T22:29:37.084Z,9.60
2019-04-30T22:30:40.884Z,9.60
2019-04-30T22:31:54.312Z,9.60
2019-04-30T22:33:08.934Z,9.60
2019-04-30T22:34:22.796Z,9.60
2019-04-30T22:35:40.436Z,9.60
2019-04-30T22:36:53.845Z,9.60
2019-04-30T22:38:24.756Z,9.60
2019-04-30T22:39:45.560Z,9.60
2019-04-30T22:40:59.009Z,9.50
2019-04-30T22:42:21.056Z,9.50
2019-04-30T22:43:34.323Z,9.50
2019-04-30T22:44:47.854Z,9.50
2019-04-30T22:46:05.720Z,9.40
2019-04-30T22:47:18.977Z,9.50
2019-04-30T22:48:32.256Z,9.40
2019-04-30T22:49:45.521Z,9.50
2019-04-30T22:50:59.888Z,9.40
2019-04-30T22:52:13.404Z,9.40
2019-04-30T22:53:26.655Z,9.40
2019-04-30T22:54:39.921Z,9.40
2019-04-30T22:55:53.180Z,9.30
2019-04-30T22:57:06.783Z,9.30
2019-04-30T22:58:20.057Z,9.30
2019-04-30T22:59:33.316Z,9.20
2019-04-30T23:00:47.149Z,9.20
2019-04-30T23:02:07.782Z,9.20
2019-04-30T23:03:25.660Z,9.10
2019-04-30T23:04:43.276Z,9.10
2019-04-30T23:05:56.706Z,9.10
2019-04-30T23:07:10.465Z,9.10
2019-04-30T23:08:23.732Z,9.10
2019-04-30T23:09:37.369Z,9.10
2019-04-30T23:10:50.628Z,9.00
2019-04-30T23:12:04.464Z,9.00
2019-04-30T23:13:17.722Z,9.00
2019-04-30T23:14:30.994Z,9.00
2019-04-30T23:15:44.334Z,9.00
2019-04-30T23:16:57.720Z,9.00
2019-04-30T23:18:10.975Z,9.00
2019-04-30T23:19:24.641Z,8.90
2019-04-30T23:20:37.908Z,8.90
2019-04-30T23:21:51.187Z,8.90
2019-04-30T23:23:04.716Z,8.80
2019-04-30T23:24:17.980Z,8.80
2019-04-30T23:25:32.874Z,8.80
2019-04-30T23:26:47.057Z,8.70
2019-04-30T23:28:00.324Z,8.80
2019-04-30T23:29:13.588Z,8.80
2019-04-30T23:30:27.189Z,8.70
2019-04-30T23:31:40.448Z,8.70
2019-04-30T23:32:54.147Z,8.70
2019-04-30T23:34:17.474Z,8.70
2019-04-30T23:35:22.379Z,8.70
2019-04-30T23:36:35.821Z,8.70
2019-04-30T23:37:49.105Z,8.60
2019-04-30T23:39:02.364Z,8.60
2019-04-30T23:40:33.917Z,8.60
2019-04-30T23:41:47.183Z,8.60
2019-04-30T23:43:00.452Z,8.60
2019-04-30T23:44:14.070Z,8.60
2019-04-30T23:45:27.395Z,8.60
2019-04-30T23:46:41.017Z,8.50
2019-04-30T23:47:54.316Z,8.50
2019-04-30T23:49:07.951Z,8.50
2019-04-30T23:50:21.253Z,8.50
2019-04-30T23:51:34.512Z,8.50
2019-04-30T23:52:47.793Z,8.50
2019-04-30T23:54:01.060Z,8.40
2019-04-30T23:55:14.326Z,8.40
2019-04-30T23:56:28.531Z,8.40
2019-04-30T23:57:42.024Z,8.40
2019-04-30T23:58:55.285Z,8.40
